Time;durP1;ratioP1;P1;durP2;ratioP2;P2;SDS_P1;SDS_P2;PMS_P1;PMS_P2;Temp;Humidity;BMP_temperature;BMP_pressure;BME280_temperature;BME280_humidity;BME280_pressure;Samples;Min_cycle;Max_cycle;Signal;HPM_P1;HPM_P2
2024/01/14 00:02:08;;;;;;;30.90;17.52;;;1.20;99.90;;;;;;5031949;28;20021;-46
2024/01/14 00:04:34;;;;;;;27.17;15.10;;;1.20;99.90;;;;;;5031132;28;20041;-47
2024/01/14 00:06:59;;;;;;;28.80;15.43;;;1.10;99.90;;;;;;5032260;28;20099;-47
2024/01/14 00:09:25;;;;;;;30.25;16.20;;;1.10;99.90;;;;;;5014713;28;20481;-46
2024/01/14 00:11:50;;;;;;;30.25;16.02;;;1.10;99.90;;;;;;5032371;28;20024;-46
2024/01/14 00:14:16;;;;;;;27.23;14.88;;;1.10;99.90;;;;;;5031592;28;20025;-45
2024/01/14 00:16:41;;;;;;;34.20;16.02;;;1.10;99.90;;;;;;5031825;28;20084;-47
2024/01/14 00:19:09;;;;;;;30.15;16.30;;;1.00;99.90;;;;;;5031837;28;20078;-49
2024/01/14 00:21:35;;;;;;;31.08;16.38;;;1.00;99.90;;;;;;5031677;28;20014;-53
2024/01/14 00:24:01;;;;;;;38.50;18.45;;;1.00;99.90;;;;;;5031567;28;20037;-47
2024/01/14 00:26:28;;;;;;;38.83;18.42;;;1.00;99.90;;;;;;5031679;28;20473;-47
2024/01/14 00:28:55;;;;;;;32.85;16.15;;;1.00;99.90;;;;;;5032029;28;20021;-45
2024/01/14 00:31:21;;;;;;;33.80;17.95;;;1.10;99.90;;;;;;5031883;28;20389;-47
2024/01/14 00:33:49;;;;;;;35.60;18.08;;;1.00;99.90;;;;;;5031503;28;20021;-52
2024/01/14 00:36:14;;;;;;;34.40;16.65;;;1.00;99.90;;;;;;5031271;28;20028;-46
2024/01/14 00:38:40;;;;;;;34.03;16.42;;;1.10;99.90;;;;;;5031741;28;20033;-50
2024/01/14 00:41:05;;;;;;;33.47;16.52;;;1.00;99.90;;;;;;5032093;28;20037;-51
2024/01/14 00:43:31;;;;;;;37.08;16.98;;;1.10;99.90;;;;;;5031605;28;20037;-50
2024/01/14 00:45:56;;;;;;;33.83;16.75;;;1.10;99.90;;;;;;5031315;28;20596;-51
2024/01/14 00:48:22;;;;;;;38.15;19.38;;;1.20;99.90;;;;;;5031374;28;20448;-48
2024/01/14 00:50:47;;;;;;;33.03;16.50;;;1.20;99.90;;;;;;5031418;28;20104;-48
2024/01/14 00:53:13;;;;;;;32.53;15.65;;;1.10;99.90;;;;;;5031403;28;20083;-48
2024/01/14 00:55:38;;;;;;;33.85;17.23;;;1.20;99.90;;;;;;5013582;28;20017;-52
2024/01/14 00:58:04;;;;;;;30.20;16.08;;;1.20;99.90;;;;;;5031437;28;20488;-54
2024/01/14 01:00:30;;;;;;;32.15;17.40;;;1.30;99.90;;;;;;5031203;28;20116;-51
2024/01/14 01:02:55;;;;;;;31.05;16.05;;;1.30;99.90;;;;;;5030982;28;20513;-45
2024/01/14 01:05:21;;;;;;;37.03;17.13;;;1.20;99.90;;;;;;5031152;28;20037;-48
2024/01/14 01:07:46;;;;;;;34.20;17.17;;;1.20;99.90;;;;;;5031631;28;20030;-51
2024/01/14 01:10:13;;;;;;;42.33;19.30;;;1.20;99.90;;;;;;5031357;28;20029;-50
2024/01/14 01:12:38;;;;;;;33.80;16.75;;;1.20;99.90;;;;;;5031452;28;20491;-52
2024/01/14 01:15:07;;;;;;;36.30;19.20;;;1.30;99.90;;;;;;5031340;28;20104;-50
2024/01/14 01:17:33;;;;;;;38.03;19.13;;;1.20;99.90;;;;;;5031447;28;20029;-48
2024/01/14 01:20:00;;;;;;;37.65;19.27;;;1.20;99.90;;;;;;5031228;28;20025;-50
2024/01/14 01:22:25;;;;;;;41.38;20.13;;;1.20;99.90;;;;;;5031000;28;20029;-48
2024/01/14 01:24:51;;;;;;;40.33;19.42;;;1.20;99.90;;;;;;5030785;28;20030;-53
2024/01/14 01:27:16;;;;;;;38.75;19.48;;;1.20;99.90;;;;;;5013277;28;20107;-48
2024/01/14 01:29:43;;;;;;;37.17;17.83;;;1.20;99.90;;;;;;5031016;28;20028;-49
2024/01/14 01:32:09;;;;;;;38.28;18.90;;;1.20;99.90;;;;;;5031140;28;20039;-49
2024/01/14 01:34:35;;;;;;;36.58;17.80;;;1.20;99.90;;;;;;5030955;28;20492;-50
2024/01/14 01:37:02;;;;;;;39.65;20.17;;;1.20;99.90;;;;;;5030908;28;20038;-47
2024/01/14 01:39:27;;;;;;;38.47;19.88;;;1.20;99.90;;;;;;5031174;28;20057;-52
2024/01/14 01:41:53;;;;;;;44.28;19.15;;;1.20;99.90;;;;;;5030870;28;20057;-46
2024/01/14 01:44:18;;;;;;;37.30;17.27;;;1.20;99.90;;;;;;5030517;28;20052;-49
2024/01/14 01:46:44;;;;;;;37.10;19.00;;;1.20;99.90;;;;;;5030588;28;20026;-50
2024/01/14 01:49:10;;;;;;;35.65;19.50;;;1.20;99.90;;;;;;5030886;28;20436;-51
2024/01/14 01:51:39;;;;;;;41.30;19.10;;;1.20;99.90;;;;;;5032357;28;20159;-50
2024/01/14 01:54:04;;;;;;;37.13;18.08;;;1.30;99.90;;;;;;5033963;28;20064;-45
2024/01/14 01:56:32;;;;;;;32.50;16.50;;;1.30;99.90;;;;;;5034402;28;20045;-50
2024/01/14 01:58:58;;;;;;;38.85;19.92;;;1.10;99.90;;;;;;5034190;28;20474;-49
2024/01/14 02:01:24;;;;;;;67.18;31.73;;;1.10;99.90;;;;;;5033969;28;20088;-47
2024/01/14 02:03:54;;;;;;;48.25;22.50;;;1.10;99.90;;;;;;5034225;28;20504;-48
2024/01/14 02:06:20;;;;;;;39.63;19.40;;;1.10;99.90;;;;;;5034101;28;20062;-47
2024/01/14 02:08:47;;;;;;;40.72;17.73;;;1.00;99.90;;;;;;5034036;28;20018;-48
2024/01/14 02:11:27;;;;;;;36.78;17.38;;;1.00;99.90;;;;;;5033710;28;20025;-49
2024/01/14 02:13:52;;;;;;;36.50;18.27;;;0.90;99.90;;;;;;5032576;28;20018;-50
2024/01/14 02:16:20;;;;;;;40.50;18.48;;;0.90;99.90;;;;;;5033706;28;20079;-49
2024/01/14 02:18:45;;;;;;;38.72;16.35;;;0.90;99.90;;;;;;5033857;28;20033;-50
2024/01/14 02:21:17;;;;;;;32.45;16.92;;;0.90;99.90;;;;;;5033971;28;20026;-49
2024/01/14 02:23:45;;;;;;;32.60;17.42;;;1.00;99.90;;;;;;5032477;28;20489;-48
2024/01/14 02:26:11;;;;;;;35.70;17.20;;;1.00;99.90;;;;;;5033549;28;20036;-50
2024/01/14 02:28:37;;;;;;;35.35;18.65;;;1.00;99.90;;;;;;5015893;28;20025;-48
2024/01/14 02:31:03;;;;;;;38.22;18.27;;;1.00;99.90;;;;;;5033640;28;20061;-43
2024/01/14 02:33:28;;;;;;;34.90;17.25;;;0.90;99.90;;;;;;5033817;28;20500;-43
2024/01/14 02:35:54;;;;;;;37.92;18.02;;;0.90;99.90;;;;;;5033492;28;20029;-47
2024/01/14 02:38:19;;;;;;;42.85;18.35;;;0.80;99.90;;;;;;5033542;28;20562;-47
2024/01/14 02:40:45;;;;;;;38.00;18.98;;;0.90;99.90;;;;;;5033387;28;20109;-48
2024/01/14 02:43:10;;;;;;;38.55;18.42;;;1.00;99.90;;;;;;5015477;28;20031;-44
2024/01/14 02:45:36;;;;;;;42.65;18.98;;;1.00;99.90;;;;;;5015666;28;20025;-52
2024/01/14 02:48:01;;;;;;;44.65;20.23;;;1.00;99.90;;;;;;5033451;28;20033;-47
2024/01/14 02:50:27;;;;;;;42.25;19.90;;;0.90;99.90;;;;;;5032184;28;20029;-43
2024/01/14 02:52:52;;;;;;;42.92;18.55;;;0.80;99.90;;;;;;5033042;28;20112;-49
2024/01/14 02:55:18;;;;;;;34.03;17.05;;;0.80;99.90;;;;;;5015045;28;20393;-45
2024/01/14 02:57:43;;;;;;;37.53;17.92;;;0.80;99.90;;;;;;5032966;28;20483;-45
2024/01/14 03:00:10;;;;;;;38.67;17.85;;;0.80;99.90;;;;;;5032774;28;20520;-50
2024/01/14 03:02:36;;;;;;;41.85;19.38;;;0.80;99.90;;;;;;5030024;28;20053;-45
2024/01/14 03:05:02;;;;;;;37.60;17.92;;;0.70;99.90;;;;;;5032797;28;20032;-44
2024/01/14 03:07:27;;;;;;;34.22;16.48;;;0.70;99.90;;;;;;5033022;28;20029;-46
2024/01/14 03:09:53;;;;;;;40.10;18.77;;;0.70;99.90;;;;;;5032868;28;20397;-46
2024/01/14 03:12:18;;;;;;;42.22;18.63;;;0.70;99.90;;;;;;5032381;28;20053;-40
2024/01/14 03:14:44;;;;;;;42.53;19.88;;;0.70;99.90;;;;;;5032606;28;20029;-43
2024/01/14 03:17:10;;;;;;;33.80;17.10;;;0.80;99.90;;;;;;5032656;28;20075;-44
2024/01/14 03:19:35;;;;;;;41.53;17.15;;;0.80;99.90;;;;;;5031909;28;20112;-45
2024/01/14 03:22:01;;;;;;;39.47;17.95;;;0.90;99.90;;;;;;5032543;28;20029;-47
2024/01/14 03:24:27;;;;;;;34.83;17.58;;;0.90;99.90;;;;;;5014735;28;20028;-45
2024/01/14 03:26:53;;;;;;;46.33;20.30;;;0.90;99.90;;;;;;5032919;28;20108;-48
2024/01/14 03:29:19;;;;;;;40.92;19.75;;;0.80;99.90;;;;;;5032377;28;20029;-43
2024/01/14 03:31:44;;;;;;;40.17;17.85;;;0.80;99.90;;;;;;5031872;28;20025;-44
2024/01/14 03:34:10;;;;;;;35.45;17.80;;;0.80;99.90;;;;;;5014673;28;20028;-46
2024/01/14 03:36:35;;;;;;;35.47;17.23;;;0.80;99.90;;;;;;5032347;28;20040;-45
2024/01/14 03:39:03;;;;;;;38.50;19.13;;;0.80;99.90;;;;;;5032265;28;20057;-45
2024/01/14 03:41:30;;;;;;;37.60;18.83;;;0.80;99.90;;;;;;5031777;28;20045;-48
2024/01/14 03:43:56;;;;;;;41.80;19.85;;;0.80;99.90;;;;;;5014267;28;20105;-46
2024/01/14 03:46:22;;;;;;;41.22;18.80;;;0.80;99.90;;;;;;5031919;28;20091;-43
2024/01/14 03:48:47;;;;;;;35.30;17.95;;;0.70;99.90;;;;;;5032036;28;20075;-46
2024/01/14 03:51:13;;;;;;;39.75;19.02;;;0.80;99.90;;;;;;5032054;28;20101;-43
2024/01/14 03:53:38;;;;;;;38.08;18.67;;;0.70;99.90;;;;;;5031781;28;20021;-48
2024/01/14 03:56:04;;;;;;;40.28;20.13;;;0.70;99.90;;;;;;5031622;28;20029;-46
2024/01/14 03:58:29;;;;;;;39.88;17.85;;;0.60;99.90;;;;;;5031873;28;20030;-45
2024/01/14 04:00:55;;;;;;;41.20;18.90;;;0.60;99.90;;;;;;5031904;28;20547;-47
2024/01/14 04:03:20;;;;;;;77.05;34.38;;;0.70;99.90;;;;;;5031681;28;20033;-45
2024/01/14 04:05:46;;;;;;;41.28;20.98;;;0.70;99.90;;;;;;5031667;28;20036;-47
2024/01/14 04:08:11;;;;;;;42.78;18.80;;;0.60;99.90;;;;;;5031648;28;20037;-44
2024/01/14 04:10:37;;;;;;;35.13;18.30;;;0.60;99.90;;;;;;5031497;28;20036;-50
2024/01/14 04:13:02;;;;;;;44.75;19.25;;;0.50;99.90;;;;;;5013625;28;20029;-45
2024/01/14 04:15:28;;;;;;;43.00;18.75;;;0.40;99.90;;;;;;5031193;28;20028;-44
2024/01/14 04:17:53;;;;;;;41.60;19.27;;;0.40;99.90;;;;;;5031742;28;20507;-49
2024/01/14 04:20:19;;;;;;;44.35;19.48;;;0.40;99.90;;;;;;5031993;28;20026;-44
2024/01/14 04:22:44;;;;;;;39.53;17.88;;;0.40;99.90;;;;;;5031485;28;20041;-46
2024/01/14 04:25:10;;;;;;;38.47;18.88;;;0.30;99.90;;;;;;5031331;28;20025;-45
2024/01/14 04:27:37;;;;;;;40.55;19.42;;;0.30;99.90;;;;;;5013625;28;20028;-47
2024/01/14 04:30:03;;;;;;;34.80;18.17;;;0.30;99.90;;;;;;5031540;28;20513;-44
2024/01/14 04:32:29;;;;;;;40.83;16.88;;;0.30;99.90;;;;;;5031443;28;20508;-46
2024/01/14 04:34:54;;;;;;;34.53;16.98;;;0.40;99.90;;;;;;5031377;28;20033;-45
2024/01/14 04:37:20;;;;;;;33.63;16.42;;;0.30;99.90;;;;;;5031495;28;20041;-46
2024/01/14 04:39:45;;;;;;;35.88;17.38;;;0.40;99.90;;;;;;5031194;28;20507;-46
2024/01/14 04:42:11;;;;;;;37.90;18.08;;;0.40;99.90;;;;;;5013922;28;20049;-46
2024/01/14 04:44:36;;;;;;;45.33;20.75;;;0.50;99.90;;;;;;5031000;28;20105;-47
2024/01/14 04:47:02;;;;;;;45.75;19.92;;;0.40;99.90;;;;;;5031660;28;20558;-48
2024/01/14 04:49:28;;;;;;;42.28;19.77;;;0.40;99.90;;;;;;5031253;28;20110;-44
2024/01/14 04:51:53;;;;;;;41.42;19.98;;;0.30;99.90;;;;;;5031313;28;20029;-46
2024/01/14 04:54:19;;;;;;;43.17;19.42;;;0.30;99.90;;;;;;5031791;28;20036;-44
2024/01/14 04:56:45;;;;;;;35.78;17.20;;;0.20;99.90;;;;;;5032241;28;20030;-47
2024/01/14 04:59:10;;;;;;;46.08;18.20;;;0.10;99.90;;;;;;5031956;28;20048;-44
2024/01/14 05:01:36;;;;;;;38.70;18.50;;;0.00;99.90;;;;;;5032997;28;20022;-48
2024/01/14 05:04:03;;;;;;;38.35;17.77;;;0.00;99.90;;;;;;5031556;28;20057;-41
2024/01/14 05:06:28;;;;;;;41.60;16.70;;;0.00;99.90;;;;;;5031180;28;20101;-44
2024/01/14 05:08:55;;;;;;;35.67;17.30;;;0.00;99.90;;;;;;5031187;28;20029;-42
2024/01/14 05:11:20;;;;;;;36.47;17.92;;;0.00;99.90;;;;;;5031091;28;20025;-44
2024/01/14 05:13:46;;;;;;;34.65;15.80;;;0.00;99.90;;;;;;5030937;28;20109;-44
2024/01/14 05:16:11;;;;;;;36.05;15.95;;;0.00;99.90;;;;;;5031006;28;20057;-48
2024/01/14 05:18:37;;;;;;;33.92;17.05;;;0.10;99.90;;;;;;5013439;28;20492;-46
2024/01/14 05:21:03;;;;;;;36.42;16.73;;;0.10;99.90;;;;;;5030990;28;20025;-48
2024/01/14 05:23:28;;;;;;;41.97;16.80;;;0.00;99.90;;;;;;5030856;28;20120;-44
2024/01/14 05:25:54;;;;;;;48.97;17.92;;;0.10;99.90;;;;;;5033166;28;20101;-45
2024/01/14 05:28:19;;;;;;;41.45;16.42;;;0.10;99.90;;;;;;5034784;28;20030;-44
2024/01/14 05:30:46;;;;;;;37.13;17.42;;;0.10;99.90;;;;;;5034751;28;20034;-44
2024/01/14 05:33:11;;;;;;;43.25;18.55;;;0.10;99.90;;;;;;5016907;28;20045;-45
2024/01/14 05:35:37;;;;;;;38.13;17.05;;;0.10;99.90;;;;;;5034610;28;20029;-46
2024/01/14 05:38:03;;;;;;;37.20;17.77;;;0.10;99.90;;;;;;5034731;28;20021;-46
2024/01/14 05:40:28;;;;;;;43.05;19.95;;;0.00;99.90;;;;;;5034475;28;20053;-47
2024/01/14 05:42:54;;;;;;;41.78;19.58;;;0.00;99.90;;;;;;5034589;28;20025;-46
2024/01/14 05:45:19;;;;;;;49.42;20.38;;;0.00;99.90;;;;;;5034419;28;20026;-46
2024/01/14 05:47:45;;;;;;;53.38;22.15;;;0.10;99.90;;;;;;5034692;28;20037;-45
2024/01/14 05:50:10;;;;;;;44.72;19.17;;;0.00;99.90;;;;;;5034479;28;20037;-44
2024/01/14 05:52:36;;;;;;;48.53;22.88;;;0.10;99.90;;;;;;5034290;28;20022;-45
2024/01/14 05:55:02;;;;;;;46.70;22.15;;;0.10;99.90;;;;;;5034300;28;20075;-44
2024/01/14 05:57:28;;;;;;;54.90;23.65;;;0.20;99.90;;;;;;5034405;28;20033;-47
2024/01/14 05:59:53;;;;;;;57.28;24.60;;;0.20;99.90;;;;;;5034298;28;20034;-45
2024/01/14 06:02:19;;;;;;;54.75;24.48;;;0.10;99.90;;;;;;5034011;28;20484;-46
2024/01/14 06:04:45;;;;;;;60.13;26.52;;;0.10;99.90;;;;;;5033883;28;20037;-44
2024/01/14 06:07:10;;;;;;;63.33;28.05;;;0.10;99.90;;;;;;5033953;28;20036;-45
2024/01/14 06:09:36;;;;;;;59.53;25.65;;;0.10;99.90;;;;;;5034077;28;20033;-45
2024/01/14 06:12:01;;;;;;;66.70;28.60;;;0.00;99.90;;;;;;5016139;28;20099;-48
2024/01/14 06:14:27;;;;;;;57.30;24.08;;;0.10;99.90;;;;;;5033766;28;20022;-44
2024/01/14 06:16:53;;;;;;;68.43;28.85;;;-0.10;99.90;;;;;;5033992;28;20489;-43
2024/01/14 06:19:19;;;;;;;58.85;25.00;;;-0.20;99.90;;;;;;5016157;28;20075;-44
2024/01/14 06:21:45;;;;;;;68.45;26.25;;;-0.20;99.90;;;;;;5016798;28;20025;-46
2024/01/14 06:24:13;;;;;;;61.35;25.92;;;-0.20;99.90;;;;;;5035091;28;20539;-44
2024/01/14 06:26:38;;;;;;;62.38;27.73;;;-0.30;99.90;;;;;;5033710;28;20043;-47
2024/01/14 06:29:04;;;;;;;72.13;28.80;;;-0.40;99.90;;;;;;5033674;28;20029;-46
2024/01/14 06:31:29;;;;;;;60.67;25.85;;;-0.40;99.90;;;;;;5033677;28;20029;-44
2024/01/14 06:33:55;;;;;;;62.50;26.80;;;-0.40;99.90;;;;;;5034184;28;20037;-52
2024/01/14 06:36:21;;;;;;;69.68;25.77;;;-0.50;99.90;;;;;;5015826;28;20512;-44
2024/01/14 06:38:46;;;;;;;61.63;25.50;;;-0.40;99.90;;;;;;5033331;28;20102;-44
2024/01/14 06:41:25;;;;;;;58.25;24.38;;;-0.40;99.90;;;;;;5033551;28;20033;-44
2024/01/14 06:43:50;;;;;;;61.80;24.58;;;-0.40;99.90;;;;;;5033424;28;20032;-44
2024/01/14 06:46:16;;;;;;;55.03;22.65;;;-0.40;99.90;;;;;;5033225;28;20026;-46
2024/01/14 06:48:41;;;;;;;68.32;25.95;;;-0.30;99.90;;;;;;5033278;28;20025;-47
2024/01/14 06:51:07;;;;;;;66.03;24.27;;;-0.40;99.90;;;;;;5033369;28;20021;-44
2024/01/14 06:53:32;;;;;;;54.67;23.17;;;-0.40;99.90;;;;;;5015385;28;20039;-45
2024/01/14 06:55:59;;;;;;;54.65;24.20;;;-0.40;99.90;;;;;;5015292;28;20099;-48
2024/01/14 06:58:25;;;;;;;63.25;23.50;;;-0.40;99.90;;;;;;5033483;28;20037;-50
2024/01/14 07:00:50;;;;;;;57.50;23.50;;;-0.40;99.90;;;;;;5033259;28;20065;-48
2024/01/14 07:03:16;;;;;;;64.15;24.50;;;-0.30;99.90;;;;;;5032800;28;20041;-45
2024/01/14 07:05:41;;;;;;;57.53;23.05;;;-0.30;99.90;;;;;;5032850;28;20083;-46
2024/01/14 07:08:07;;;;;;;53.78;21.17;;;-0.30;99.90;;;;;;5032888;28;20556;-46
2024/01/14 07:10:33;;;;;;;58.63;22.88;;;-0.40;99.90;;;;;;5032861;28;20027;-45
2024/01/14 07:12:59;;;;;;;60.85;23.58;;;-0.40;99.90;;;;;;5032799;28;20535;-47
2024/01/14 07:15:24;;;;;;;63.03;25.13;;;-0.40;99.90;;;;;;5032637;28;20457;-46
2024/01/14 07:17:50;;;;;;;56.95;23.20;;;-0.50;99.90;;;;;;5032779;28;20033;-44
2024/01/14 07:20:16;;;;;;;51.42;21.50;;;-0.50;99.90;;;;;;5032603;28;20396;-46
2024/01/14 07:22:42;;;;;;;48.25;22.17;;;-0.50;99.90;;;;;;5032626;28;20021;-45
2024/01/14 07:25:10;;;;;;;57.78;23.00;;;-0.50;99.90;;;;;;5032487;28;20507;-50
2024/01/14 07:27:36;;;;;;;59.17;21.05;;;-0.50;99.90;;;;;;5032460;28;20044;-47
2024/01/14 07:30:02;;;;;;;49.33;21.15;;;-0.40;99.90;;;;;;5032577;28;20025;-45
2024/01/14 07:32:27;;;;;;;52.28;21.42;;;-0.40;99.90;;;;;;5032163;28;20087;-45
2024/01/14 07:34:53;;;;;;;52.70;21.67;;;-0.40;99.90;;;;;;5032462;28;20104;-40
2024/01/14 07:37:18;;;;;;;55.92;23.38;;;-0.50;99.90;;;;;;5032341;28;20059;-48
2024/01/14 07:39:46;;;;;;;50.28;21.00;;;-0.40;99.90;;;;;;5032355;28;20043;-44
2024/01/14 07:42:12;;;;;;;50.22;21.42;;;-0.50;99.90;;;;;;5032270;28;20022;-46
2024/01/14 07:44:37;;;;;;;54.92;22.67;;;-0.40;99.90;;;;;;5031891;28;20018;-46
2024/01/14 07:47:03;;;;;;;52.35;21.70;;;-0.30;99.90;;;;;;5032167;28;20104;-47
2024/01/14 07:49:28;;;;;;;46.90;19.50;;;-0.40;99.90;;;;;;5032300;28;20040;-44
2024/01/14 07:51:54;;;;;;;55.38;23.60;;;-0.30;99.90;;;;;;5032191;28;20026;-46
2024/01/14 07:54:19;;;;;;;52.28;20.80;;;-0.40;99.90;;;;;;5031760;28;20064;-45
2024/01/14 07:56:45;;;;;;;61.35;24.83;;;-0.40;99.90;;;;;;5032347;28;20022;-45
2024/01/14 07:59:10;;;;;;;46.03;20.55;;;-0.40;99.90;;;;;;5032345;28;20397;-45
2024/01/14 08:01:37;;;;;;;48.22;20.63;;;-0.40;99.90;;;;;;5032015;28;20083;-44
2024/01/14 08:04:03;;;;;;;54.67;22.02;;;-0.30;99.90;;;;;;5032152;28;20492;-40
2024/01/14 08:06:29;;;;;;;49.20;21.00;;;-0.40;99.90;;;;;;5032239;28;20033;-43
2024/01/14 08:08:55;;;;;;;53.50;22.00;;;-0.40;99.90;;;;;;5031810;28;20084;-43
2024/01/14 08:11:21;;;;;;;53.20;22.90;;;-0.30;99.90;;;;;;5031758;28;20029;-44
2024/01/14 08:13:47;;;;;;;55.60;23.33;;;-0.40;99.90;;;;;;5031605;28;20156;-44
2024/01/14 08:16:13;;;;;;;55.97;22.27;;;-0.40;99.90;;;;;;5031419;28;20416;-45
2024/01/14 08:18:38;;;;;;;48.40;20.05;;;-0.30;99.90;;;;;;5033061;28;20032;-45
2024/01/14 08:21:09;;;;;;;52.67;22.38;;;-0.20;99.90;;;;;;5031771;28;20036;-46
2024/01/14 08:23:35;;;;;;;53.08;21.95;;;-0.20;99.90;;;;;;5031425;28;20021;-47
2024/01/14 08:26:02;;;;;;;53.95;19.92;;;-0.20;99.90;;;;;;5031583;28;20508;-44
2024/01/14 08:28:29;;;;;;;49.35;20.70;;;-0.20;99.90;;;;;;5031368;28;20029;-45
2024/01/14 08:30:54;;;;;;;53.40;20.85;;;-0.10;99.90;;;;;;5031404;28;20101;-46
2024/01/14 08:33:20;;;;;;;55.75;22.85;;;-0.10;99.90;;;;;;5032139;28;20167;-45
2024/01/14 08:35:45;;;;;;;50.92;18.95;;;-0.10;99.90;;;;;;5031613;28;20163;-41
2024/01/14 08:38:11;;;;;;;52.58;21.23;;;-0.10;99.90;;;;;;5031522;28;20104;-44
2024/01/14 08:40:36;;;;;;;48.72;20.17;;;-0.10;99.90;;;;;;5031351;28;20028;-44
2024/01/14 08:43:02;;;;;;;47.33;20.27;;;0.00;99.90;;;;;;5031321;28;20032;-47
2024/01/14 08:45:27;;;;;;;51.10;20.52;;;-0.10;99.90;;;;;;5031126;28;20029;-48
2024/01/14 08:47:53;;;;;;;50.10;19.10;;;-0.10;99.90;;;;;;5031243;28;20044;-48
2024/01/14 08:50:18;;;;;;;46.28;18.95;;;-0.30;99.90;;;;;;5031282;28;20432;-44
2024/01/14 08:52:44;;;;;;;47.42;20.08;;;-0.40;99.90;;;;;;5031127;28;20025;-42
2024/01/14 08:55:10;;;;;;;46.42;20.00;;;-0.40;99.90;;;;;;5030942;28;20014;-46
2024/01/14 08:57:35;;;;;;;45.67;18.13;;;-0.40;99.90;;;;;;5031178;28;20033;-51
2024/01/14 09:00:01;;;;;;;49.92;19.40;;;-0.50;99.90;;;;;;5031701;28;20027;-46
2024/01/14 09:02:26;;;;;;;49.47;20.67;;;-0.50;99.90;;;;;;5000728;28;20025;-44
2024/01/14 09:04:52;;;;;;;48.50;20.52;;;-0.50;99.90;;;;;;5035057;28;20037;-46
2024/01/14 09:07:17;;;;;;;47.08;22.20;;;-0.40;99.90;;;;;;5035286;28;20034;-43
2024/01/14 09:09:43;;;;;;;49.13;20.58;;;-0.40;99.90;;;;;;5035234;28;20025;-43
2024/01/14 09:12:10;;;;;;;40.00;17.40;;;-0.40;99.90;;;;;;5035046;28;20022;-44
2024/01/14 09:14:35;;;;;;;47.65;19.35;;;-0.40;99.90;;;;;;5034725;28;20048;-45
2024/01/14 09:17:01;;;;;;;45.58;19.73;;;-0.30;99.90;;;;;;5034997;28;20481;-44
2024/01/14 09:19:27;;;;;;;47.72;18.63;;;-0.30;99.90;;;;;;5035007;28;20022;-46
2024/01/14 09:21:52;;;;;;;47.78;18.65;;;-0.30;99.90;;;;;;5035300;28;20014;-45
2024/01/14 09:24:18;;;;;;;53.35;20.70;;;-0.30;99.90;;;;;;5034634;28;20018;-45
2024/01/14 09:26:43;;;;;;;45.83;18.65;;;-0.30;99.90;;;;;;5034891;28;20100;-47
2024/01/14 09:29:09;;;;;;;47.83;18.13;;;-0.30;99.90;;;;;;5035122;28;20473;-46
2024/01/14 09:31:34;;;;;;;48.10;19.45;;;-0.30;99.90;;;;;;5035068;28;20030;-46
2024/01/14 09:34:00;;;;;;;48.03;19.48;;;-0.20;99.90;;;;;;5034438;28;20041;-47
2024/01/14 09:36:27;;;;;;;50.58;20.70;;;-0.10;99.90;;;;;;5035173;28;20026;-47
2024/01/14 09:38:53;;;;;;;46.72;19.10;;;-0.10;99.90;;;;;;5034732;28;20053;-46
2024/01/14 09:41:30;;;;;;;41.92;17.95;;;0.00;99.90;;;;;;5035108;28;20053;-45
2024/01/14 09:43:57;;;;;;;50.97;21.23;;;0.10;99.90;;;;;;5034750;28;20033;-43
2024/01/14 09:46:23;;;;;;;44.00;18.48;;;0.00;99.90;;;;;;5035134;28;20117;-44
2024/01/14 09:48:50;;;;;;;53.05;22.15;;;0.00;99.90;;;;;;5034408;28;20026;-46
2024/01/14 09:51:17;;;;;;;47.30;19.10;;;0.00;99.90;;;;;;5034307;28;20104;-47
2024/01/14 09:53:43;;;;;;;47.95;18.02;;;0.00;99.90;;;;;;5034421;28;20018;-44
2024/01/14 09:56:10;;;;;;;46.65;18.00;;;0.00;99.90;;;;;;5034117;28;20027;-44
2024/01/14 09:58:36;;;;;;;51.95;20.27;;;0.00;99.90;;;;;;5034443;28;20099;-46
2024/01/14 10:01:04;;;;;;;45.08;19.27;;;0.10;99.90;;;;;;5034099;28;20029;-44
2024/01/14 10:03:30;;;;;;;42.63;18.02;;;0.10;99.90;;;;;;5034362;28;20033;-44
2024/01/14 10:05:56;;;;;;;41.13;18.23;;;0.10;99.90;;;;;;5033998;28;20122;-44
2024/01/14 10:08:22;;;;;;;40.33;19.92;;;0.10;99.90;;;;;;5034277;28;20029;-42
2024/01/14 10:10:53;;;;;;;47.22;19.98;;;0.30;99.90;;;;;;5033994;28;20025;-41
2024/01/14 10:13:22;;;;;;;42.35;18.50;;;0.30;99.90;;;;;;5033215;28;20060;-44
2024/01/14 10:15:48;;;;;;;56.58;19.15;;;0.30;99.90;;;;;;5017109;28;20365;-44
2024/01/14 10:18:14;;;;;;;49.97;20.00;;;0.40;99.90;;;;;;5034417;28;20553;-45
2024/01/14 10:20:40;;;;;;;54.17;21.05;;;0.40;99.90;;;;;;5015936;28;20072;-45
2024/01/14 10:23:05;;;;;;;42.58;18.25;;;0.40;99.90;;;;;;5033700;28;20049;-44
2024/01/14 10:25:31;;;;;;;38.90;17.35;;;0.50;99.90;;;;;;5033852;28;20033;-47
2024/01/14 10:27:57;;;;;;;50.63;21.63;;;0.50;99.90;;;;;;5033754;28;20492;-46
2024/01/14 10:30:23;;;;;;;43.83;18.90;;;0.30;99.90;;;;;;5033584;28;20044;-46
2024/01/14 10:32:50;;;;;;;50.30;19.77;;;0.30;99.90;;;;;;5033531;28;20343;-45
2024/01/14 10:35:15;;;;;;;45.78;18.50;;;0.30;99.90;;;;;;5015461;28;20026;-45
2024/01/14 10:37:41;;;;;;;41.25;18.08;;;0.30;99.90;;;;;;5033493;28;20033;-45
2024/01/14 10:40:08;;;;;;;47.33;19.13;;;0.20;99.90;;;;;;5033261;28;20504;-45
2024/01/14 10:42:35;;;;;;;45.13;18.25;;;0.30;99.90;;;;;;5033306;28;20397;-41
2024/01/14 10:45:00;;;;;;;52.22;19.08;;;0.20;99.90;;;;;;5033121;28;20091;-44
2024/01/14 10:47:29;;;;;;;46.92;20.90;;;0.30;99.90;;;;;;5033600;28;20025;-46
2024/01/14 10:49:58;;;;;;;48.03;20.90;;;0.20;99.90;;;;;;5034469;28;20030;-45
2024/01/14 10:52:26;;;;;;;41.65;18.25;;;0.20;99.90;;;;;;5033749;28;20028;-44
2024/01/14 10:54:55;;;;;;;48.90;19.35;;;0.10;99.90;;;;;;5033553;28;20040;-46
2024/01/14 10:57:34;;;;;;;41.17;18.75;;;0.30;99.90;;;;;;5033299;28;20029;-44
2024/01/14 11:00:06;;;;;;;47.00;20.55;;;0.20;99.90;;;;;;5033279;28;20060;-45
2024/01/14 11:02:34;;;;;;;48.13;18.80;;;0.20;99.90;;;;;;5032869;28;20045;-46
2024/01/14 11:05:00;;;;;;;46.17;18.30;;;0.30;99.90;;;;;;5033430;28;20052;-48
2024/01/14 11:07:27;;;;;;;45.63;18.63;;;0.40;99.90;;;;;;5033024;28;20025;-44
2024/01/14 11:09:54;;;;;;;44.35;19.13;;;0.30;99.90;;;;;;5033190;28;20465;-43
2024/01/14 11:12:53;;;;;;;42.30;18.42;;;0.20;99.90;;;;;;5032714;28;20168;-42
2024/01/14 11:15:32;;;;;;;49.45;18.17;;;0.20;99.90;;;;;;5014885;28;20068;-44
2024/01/14 11:18:11;;;;;;;39.50;18.65;;;0.30;99.90;;;;;;5033304;28;20452;-45
2024/01/14 11:20:41;;;;;;;48.17;19.67;;;0.30;99.90;;;;;;5032718;28;20025;-44
2024/01/14 11:23:07;;;;;;;40.25;17.73;;;0.20;99.90;;;;;;5014951;28;20026;-47
2024/01/14 11:25:34;;;;;;;50.38;18.50;;;0.20;99.90;;;;;;5032712;28;20032;-46
2024/01/14 11:28:05;;;;;;;45.17;19.38;;;0.20;99.90;;;;;;5034477;28;20032;-49
2024/01/14 11:30:50;;;;;;;44.45;19.30;;;0.20;99.90;;;;;;5033876;28;20518;-48
2024/01/14 11:33:29;;;;;;;49.17;19.60;;;0.20;99.90;;;;;;5033358;28;20101;-49
2024/01/14 11:35:55;;;;;;;49.53;19.80;;;0.20;99.90;;;;;;5015438;28;20029;-46
2024/01/14 11:38:38;;;;;;;45.63;18.75;;;0.20;99.90;;;;;;5032765;28;20079;-44
2024/01/14 11:41:28;;;;;;;46.95;19.25;;;0.20;99.90;;;;;;5014678;28;20026;-46
2024/01/14 11:43:57;;;;;;;179.75;83.22;;;0.30;99.90;;;;;;5031931;28;20060;-43
2024/01/14 11:46:42;;;;;;;66.05;30.52;;;0.30;99.90;;;;;;5032529;28;20026;-44
2024/01/14 11:49:10;;;;;;;45.88;19.52;;;0.20;99.90;;;;;;5032150;28;20372;-48
2024/01/14 11:51:43;;;;;;;44.50;18.98;;;0.20;99.90;;;;;;5032048;28;20014;-43
2024/01/14 11:54:12;;;;;;;43.05;19.02;;;0.20;99.90;;;;;;5031816;28;20447;-45
2024/01/14 11:56:39;;;;;;;41.65;18.27;;;0.30;99.90;;;;;;5032460;28;20097;-46
2024/01/14 11:59:13;;;;;;;49.35;19.63;;;0.30;99.90;;;;;;5032231;28;20445;-42
2024/01/14 12:01:39;;;;;;;54.47;20.83;;;0.40;99.90;;;;;;5032197;28;20025;-42
2024/01/14 12:04:11;;;;;;;42.53;19.13;;;0.50;99.90;;;;;;5031773;28;20108;-44
2024/01/14 12:06:44;;;;;;;40.72;18.33;;;0.50;99.90;;;;;;5032106;28;20084;-45
2024/01/14 12:09:11;;;;;;;42.83;18.40;;;0.50;99.90;;;;;;5032110;28;20151;-46
2024/01/14 12:11:38;;;;;;;48.78;18.60;;;0.50;99.90;;;;;;5031856;28;20029;-43
2024/01/14 12:14:04;;;;;;;37.35;17.80;;;0.50;99.90;;;;;;5031249;28;20029;-43
2024/01/14 12:16:31;;;;;;;42.55;16.55;;;0.60;99.90;;;;;;5031762;28;20026;-44
2024/01/14 12:18:57;;;;;;;40.72;18.80;;;0.70;99.90;;;;;;5031546;28;20094;-45
2024/01/14 12:21:24;;;;;;;41.50;17.65;;;0.80;99.90;;;;;;5014012;28;20499;-47
2024/01/14 12:23:51;;;;;;;42.47;17.25;;;0.70;99.90;;;;;;5031431;28;20028;-43
2024/01/14 12:26:18;;;;;;;38.45;17.40;;;0.70;99.90;;;;;;5030999;28;20025;-45
2024/01/14 12:28:44;;;;;;;42.35;19.70;;;0.70;99.90;;;;;;5030085;28;20056;-45
2024/01/14 12:31:21;;;;;;;38.63;17.83;;;0.80;99.90;;;;;;5031223;28;20119;-47